createdAt,value
2022-12-18T00:01:38.904Z,-11.60
2022-12-18T00:04:09.220Z,-11.60
2022-12-18T00:06:37.049Z,-11.60
2022-12-18T00:09:04.606Z,-11.60
2022-12-18T00:11:32.868Z,-11.60
2022-12-18T00:14:01.980Z,-11.60
2022-12-18T00:16:31.304Z,-11.60
2022-12-18T00:18:58.980Z,-11.60
2022-12-18T00:21:26.813Z,-11.60
2022-12-18T00:23:54.152Z,-11.60
2022-12-18T00:26:27.832Z,-11.60
2022-12-18T00:28:56.697Z,-11.60
2022-12-18T00:31:25.855Z,-11.60
2022-12-18T00:33:56.794Z,-11.60
2022-12-18T00:36:34.399Z,-11.60
2022-12-18T00:39:04.748Z,-11.60
2022-12-18T00:41:50.949Z,-11.60
2022-12-18T00:44:19.450Z,-11.60
2022-12-18T00:46:48.295Z,-11.50
2022-12-18T00:49:20.590Z,-11.50
2022-12-18T00:51:48.590Z,-11.40
2022-12-18T00:54:15.967Z,-11.50
2022-12-18T00:56:49.293Z,-11.50
2022-12-18T00:59:18.848Z,-11.60
2022-12-18T01:01:47.626Z,-11.60
2022-12-18T01:04:16.314Z,-11.70
2022-12-18T01:06:43.385Z,-11.60
2022-12-18T01:09:11.793Z,-11.60
2022-12-18T01:11:39.017Z,-11.50
2022-12-18T01:14:06.122Z,-11.50
2022-12-18T01:16:33.466Z,-11.60
2022-12-18T01:19:00.580Z,-11.60
2022-12-18T01:21:27.908Z,-11.70
2022-12-18T01:23:57.103Z,-11.60
2022-12-18T01:26:26.254Z,-11.70
2022-12-18T01:28:55.405Z,-11.60
2022-12-18T01:31:26.780Z,-11.60
2022-12-18T01:33:54.960Z,-11.70
2022-12-18T01:36:31.968Z,-11.70
2022-12-18T01:39:03.882Z,-11.70
2022-12-18T01:41:52.393Z,-11.70
2022-12-18T01:44:59.498Z,-11.70
2022-12-18T01:47:48.382Z,-11.80
2022-12-18T01:50:32.189Z,-11.70
2022-12-18T01:53:00.288Z,-11.70
2022-12-18T01:55:32.408Z,-11.70
2022-12-18T01:58:01.814Z,-11.70
2022-12-18T02:00:29.540Z,-11.70
2022-12-18T02:02:57.703Z,-11.70
2022-12-18T02:06:09.188Z,-11.80
2022-12-18T02:09:09.889Z,-11.80
2022-12-18T02:12:19.185Z,-11.70
2022-12-18T02:14:56.577Z,-11.70
2022-12-18T02:17:31.933Z,-11.80
2022-12-18T02:20:35.535Z,-11.80
2022-12-18T02:23:43.498Z,-11.80
2022-12-18T02:26:28.029Z,-11.80
2022-12-18T02:29:16.717Z,-11.80
2022-12-18T02:31:54.046Z,-11.80
2022-12-18T02:34:27.393Z,-11.80
2022-12-18T02:36:55.695Z,-11.80
2022-12-18T02:39:25.148Z,-11.70
2022-12-18T02:41:52.756Z,-11.80
2022-12-18T02:44:19.858Z,-11.80
2022-12-18T02:46:51.768Z,-11.80
2022-12-18T02:49:43.007Z,-11.80
2022-12-18T02:53:03.284Z,-11.80
2022-12-18T02:55:46.361Z,-11.80
2022-12-18T02:58:53.740Z,-11.80
2022-12-18T03:01:52.225Z,-11.90
2022-12-18T03:04:24.329Z,-11.90
2022-12-18T03:06:56.704Z,-11.90
2022-12-18T03:09:33.739Z,-11.80
2022-12-18T03:12:26.053Z,-11.70
2022-12-18T03:15:20.870Z,-11.60
2022-12-18T03:18:00.999Z,-11.50
2022-12-18T03:20:32.908Z,-11.30
2022-12-18T03:23:09.417Z,-11.30
2022-12-18T03:25:41.070Z,-11.20
2022-12-18T03:28:16.930Z,-11.10
2022-12-18T03:30:47.298Z,-10.90
2022-12-18T03:33:55.828Z,-11.00
2022-12-18T03:36:23.886Z,-11.10
2022-12-18T03:38:51.800Z,-11.10
2022-12-18T03:41:27.737Z,-11.20
2022-12-18T03:44:23.179Z,-11.30
2022-12-18T03:47:00.465Z,-11.30
2022-12-18T03:49:42.565Z,-11.50
2022-12-18T03:53:01.560Z,-11.60
2022-12-18T03:55:34.740Z,-11.70
2022-12-18T03:58:05.049Z,-11.80
2022-12-18T04:00:33.089Z,-11.80
2022-12-18T04:03:02.377Z,-11.90
2022-12-18T04:05:31.373Z,-11.80
2022-12-18T04:07:58.995Z,-11.80
2022-12-18T04:10:26.024Z,-11.80
2022-12-18T04:12:58.271Z,-11.50
2022-12-18T04:15:25.512Z,-11.40
2022-12-18T04:17:52.657Z,-11.30
2022-12-18T04:20:19.824Z,-11.20
2022-12-18T04:22:48.765Z,-11.10
2022-12-18T04:25:16.012Z,-11.10
2022-12-18T04:27:43.048Z,-11.10
2022-12-18T04:30:11.512Z,-11.20
2022-12-18T04:32:38.532Z,-11.30
2022-12-18T04:35:07.773Z,-11.40
2022-12-18T04:37:34.858Z,-11.50
2022-12-18T04:40:01.865Z,-11.60
2022-12-18T04:42:29.054Z,-11.70
2022-12-18T04:44:56.101Z,-11.80
2022-12-18T04:47:24.523Z,-11.80
2022-12-18T04:49:51.638Z,-11.90
2022-12-18T04:52:18.894Z,-11.90
2022-12-18T04:54:45.941Z,-11.90
2022-12-18T04:57:12.994Z,-11.90
2022-12-18T04:59:40.026Z,-11.80
2022-12-18T05:02:07.189Z,-11.70
2022-12-18T05:04:34.330Z,-11.70
2022-12-18T05:07:01.351Z,-11.70
2022-12-18T05:09:28.405Z,-11.70
2022-12-18T05:11:55.437Z,-11.70
2022-12-18T05:14:22.446Z,-11.70
2022-12-18T05:16:49.522Z,-11.70
2022-12-18T05:19:16.705Z,-11.60
2022-12-18T05:21:43.693Z,-11.60
2022-12-18T05:24:11.251Z,-11.50
2022-12-18T05:26:38.334Z,-11.50
2022-12-18T05:29:05.350Z,-11.50
2022-12-18T05:31:37.484Z,-11.40
2022-12-18T05:34:07.069Z,-11.40
2022-12-18T05:36:34.131Z,-11.40
2022-12-18T05:39:01.414Z,-11.50
2022-12-18T05:41:29.825Z,-11.60
2022-12-18T05:43:56.947Z,-11.60
2022-12-18T05:46:25.370Z,-11.70
2022-12-18T05:48:52.947Z,-11.70
2022-12-18T05:51:23.394Z,-11.80
2022-12-18T05:53:50.550Z,-11.80
2022-12-18T05:56:21.076Z,-11.90
2022-12-18T05:58:48.932Z,-11.90
2022-12-18T06:01:21.554Z,-12.00
2022-12-18T06:03:48.713Z,-12.00
2022-12-18T06:06:19.740Z,-12.00
2022-12-18T06:08:47.685Z,-11.90
2022-12-18T06:11:19.769Z,-11.90
2022-12-18T06:13:47.762Z,-11.90
2022-12-18T06:16:14.967Z,-11.90
2022-12-18T06:18:42.171Z,-12.00
2022-12-18T06:21:09.254Z,-12.00
2022-12-18T06:23:37.180Z,-12.00
2022-12-18T06:26:13.347Z,-11.90
2022-12-18T06:28:40.400Z,-11.80
2022-12-18T06:31:09.105Z,-11.80
2022-12-18T06:33:37.408Z,-11.80
2022-12-18T06:36:10.252Z,-11.70
2022-12-18T06:38:40.381Z,-11.70
2022-12-18T06:41:16.049Z,-11.70
2022-12-18T06:43:43.952Z,-11.70
2022-12-18T06:46:12.652Z,-11.70
2022-12-18T06:48:40.118Z,-11.70
2022-12-18T06:51:07.311Z,-11.80
2022-12-18T06:53:34.837Z,-11.80
2022-12-18T06:56:10.259Z,-11.90
2022-12-18T06:58:39.620Z,-12.00
2022-12-18T07:01:11.718Z,-12.00
2022-12-18T07:03:43.381Z,-12.00
2022-12-18T07:06:21.972Z,-12.00
2022-12-18T07:08:50.318Z,-12.00
2022-12-18T07:11:18.802Z,-11.90
2022-12-18T07:13:46.336Z,-11.90
2022-12-18T07:16:24.280Z,-11.90
2022-12-18T07:18:52.508Z,-11.90
2022-12-18T07:21:21.287Z,-11.90
2022-12-18T07:23:49.255Z,-11.90
2022-12-18T07:26:20.417Z,-12.00
2022-12-18T07:28:48.171Z,-11.90
2022-12-18T07:31:20.073Z,-11.90
2022-12-18T07:33:49.635Z,-11.80
2022-12-18T07:36:17.013Z,-11.80
2022-12-18T07:38:44.419Z,-11.80
2022-12-18T07:41:14.359Z,-11.80
2022-12-18T07:43:43.232Z,-11.80
2022-12-18T07:46:13.228Z,-11.80
2022-12-18T07:48:42.092Z,-11.70
2022-12-18T07:51:09.788Z,-11.70
2022-12-18T07:53:38.146Z,-11.60
2022-12-18T07:56:27.129Z,-11.50
2022-12-18T07:58:55.513Z,-11.40
2022-12-18T08:01:22.688Z,-11.40
2022-12-18T08:03:50.577Z,-11.30
2022-12-18T08:06:22.433Z,-11.30
2022-12-18T08:08:54.062Z,-11.20
2022-12-18T08:11:22.454Z,-11.10
2022-12-18T08:13:49.531Z,-11.00
2022-12-18T08:16:17.483Z,-11.00
2022-12-18T08:18:44.599Z,-10.90
2022-12-18T08:21:12.757Z,-10.80
2022-12-18T08:23:43.396Z,-10.70
2022-12-18T08:26:14.647Z,-10.60
2022-12-18T08:28:42.708Z,-10.50
2022-12-18T08:31:10.783Z,-10.30
2022-12-18T08:33:40.107Z,-10.20
2022-12-18T08:36:10.848Z,-10.00
2022-12-18T08:38:38.280Z,-9.80
2022-12-18T08:41:09.296Z,-9.40
2022-12-18T08:43:55.117Z,-9.20
2022-12-18T08:46:25.535Z,-9.00
2022-12-18T08:48:54.172Z,-8.90
2022-12-18T08:51:21.733Z,-8.80
2022-12-18T08:53:48.905Z,-8.70
2022-12-18T08:56:16.713Z,-8.70
2022-12-18T08:58:44.131Z,-8.70
2022-12-18T09:01:13.416Z,-8.40
2022-12-18T09:03:41.417Z,-8.20
2022-12-18T09:06:09.682Z,-7.90
2022-12-18T09:08:38.435Z,-7.70
2022-12-18T09:11:06.569Z,-7.50
2022-12-18T09:13:33.699Z,-7.30
2022-12-18T09:16:00.754Z,-7.00
2022-12-18T09:18:27.805Z,-6.90
2022-12-18T09:20:54.885Z,-6.70
2022-12-18T09:23:22.611Z,-6.50
2022-12-18T09:25:49.762Z,-6.30
2022-12-18T09:28:20.100Z,-6.10
2022-12-18T09:30:50.041Z,-5.90
2022-12-18T09:33:18.403Z,-5.80
2022-12-18T09:35:47.042Z,-5.60
2022-12-18T09:38:19.096Z,-5.40
2022-12-18T09:40:54.193Z,-5.30
2022-12-18T09:44:01.898Z,-5.20
2022-12-18T09:46:36.798Z,-5.10
2022-12-18T09:49:13.215Z,-5.00
2022-12-18T09:51:53.720Z,-4.90
2022-12-18T09:54:27.895Z,-4.80
2022-12-18T09:56:55.309Z,-4.70
2022-12-18T09:59:55.659Z,-4.60
2022-12-18T10:02:26.773Z,-4.50
2022-12-18T10:05:11.576Z,-4.50
2022-12-18T10:08:04.438Z,-4.40
2022-12-18T10:10:53.410Z,-4.30
2022-12-18T10:13:24.059Z,-4.30
2022-12-18T10:16:01.552Z,-4.30
2022-12-18T10:18:45.502Z,-4.20
2022-12-18T10:21:20.284Z,-4.20
2022-12-18T10:24:37.001Z,-4.10
2022-12-18T10:27:20.208Z,-4.00
2022-12-18T10:29:47.456Z,-3.90
2022-12-18T10:32:27.945Z,-3.70
2022-12-18T10:35:00.684Z,-3.60
2022-12-18T10:37:31.176Z,-3.50
2022-12-18T10:40:21.964Z,-3.40
2022-12-18T10:43:15.595Z,-3.30
2022-12-18T10:46:11.214Z,-3.20
2022-12-18T10:48:47.867Z,-3.00
2022-12-18T10:51:31.391Z,-2.90
2022-12-18T10:54:04.325Z,-2.90
2022-12-18T10:56:36.254Z,-2.80
2022-12-18T10:59:10.298Z,-2.90
2022-12-18T11:01:58.167Z,-2.70
2022-12-18T11:04:32.401Z,-2.70
2022-12-18T11:07:05.029Z,-2.70
2022-12-18T11:09:39.763Z,-2.50
2022-12-18T11:12:23.688Z,-2.50
2022-12-18T11:14:53.790Z,-2.50
2022-12-18T11:17:31.232Z,-2.40
2022-12-18T11:20:01.212Z,-2.30
2022-12-18T11:22:34.042Z,-2.10
2022-12-18T11:28:38.134Z,-1.60
2022-12-18T11:31:22.655Z,-1.30
2022-12-18T11:34:34.329Z,-1.00
2022-12-18T11:37:04.283Z,-0.80
2022-12-18T11:39:50.825Z,-0.60
2022-12-18T11:42:47.771Z,-0.60
2022-12-18T11:45:14.806Z,-0.50
2022-12-18T11:48:17.295Z,-0.60
2022-12-18T11:50:55.338Z,-0.30
2022-12-18T11:53:23.482Z,0.00
2022-12-18T11:56:37.890Z,0.30
2022-12-18T11:59:20.014Z,0.60
2022-12-18T12:02:13.373Z,1.10
2022-12-18T12:05:18.668Z,1.50
2022-12-18T12:08:30.497Z,1.70
2022-12-18T12:11:03.656Z,1.90
2022-12-18T12:13:49.232Z,1.40
2022-12-18T12:16:39.127Z,1.20
2022-12-18T12:19:43.130Z,1.30
2022-12-18T12:22:38.988Z,1.40
2022-12-18T12:25:41.806Z,1.30
2022-12-18T12:28:12.801Z,1.20
2022-12-18T12:31:16.787Z,1.20
2022-12-18T12:34:10.136Z,1.40
2022-12-18T12:37:13.356Z,1.50
2022-12-18T12:39:46.153Z,1.60
2022-12-18T12:42:57.776Z,1.20
2022-12-18T12:45:43.419Z,1.40
2022-12-18T12:48:38.798Z,1.60
2022-12-18T12:51:25.520Z,1.70
2022-12-18T12:53:54.876Z,1.50
2022-12-18T12:56:23.235Z,1.10
2022-12-18T12:59:05.538Z,0.80
2022-12-18T13:01:42.595Z,0.70
2022-12-18T13:04:36.120Z,0.70
2022-12-18T13:07:35.990Z,0.70
2022-12-18T13:10:20.863Z,0.70
2022-12-18T13:13:05.751Z,0.70
2022-12-18T13:15:46.289Z,0.30
2022-12-18T13:18:24.611Z,0.20
2022-12-18T13:20:59.909Z,0.00
2022-12-18T13:23:39.115Z,-0.40
2022-12-18T13:26:10.893Z,-0.60
2022-12-18T13:28:49.543Z,-0.80
2022-12-18T13:32:00.240Z,-0.90
2022-12-18T13:34:32.676Z,-1.20
2022-12-18T13:37:32.455Z,-1.40
2022-12-18T13:39:59.621Z,-1.50
2022-12-18T13:42:58.557Z,-1.50
2022-12-18T13:45:47.516Z,-1.40
2022-12-18T13:48:25.933Z,-1.40
2022-12-18T13:51:09.602Z,-1.30
2022-12-18T13:53:49.646Z,-1.20
2022-12-18T13:56:18.663Z,-1.20
2022-12-18T13:58:46.982Z,-1.10
2022-12-18T14:01:25.025Z,-1.20
2022-12-18T14:04:09.173Z,-1.30
2022-12-18T14:06:36.471Z,-1.30
2022-12-18T14:09:04.530Z,-1.40
2022-12-18T14:11:32.018Z,-1.70
2022-12-18T14:14:00.099Z,-1.80
2022-12-18T14:16:28.317Z,-1.90
2022-12-18T14:19:00.941Z,-2.00
2022-12-18T14:21:36.191Z,-2.10
2022-12-18T14:24:15.558Z,-2.10
2022-12-18T14:26:48.006Z,-2.20
2022-12-18T14:29:28.145Z,-2.20
2022-12-18T14:32:19.718Z,-2.30
2022-12-18T14:34:51.943Z,-2.30
2022-12-18T14:37:26.606Z,-2.40
2022-12-18T14:40:11.388Z,-2.40
2022-12-18T14:42:38.846Z,-2.40
2022-12-18T14:45:44.366Z,-2.40
2022-12-18T14:48:39.315Z,-2.50
2022-12-18T14:51:25.811Z,-2.60
2022-12-18T14:53:57.914Z,-2.60
2022-12-18T14:56:31.833Z,-2.70
2022-12-18T14:59:23.837Z,-2.80
2022-12-18T15:02:16.933Z,-2.90
2022-12-18T15:04:45.569Z,-2.90
2022-12-18T15:07:17.524Z,-3.00
2022-12-18T15:10:02.701Z,-3.00
2022-12-18T15:12:34.757Z,-3.10
2022-12-18T15:15:01.945Z,-3.10
2022-12-18T15:17:29.616Z,-3.20
2022-12-18T15:20:04.996Z,-3.30
2022-12-18T15:22:36.732Z,-3.30
2022-12-18T15:25:27.749Z,-3.30
2022-12-18T15:27:54.850Z,-3.30
2022-12-18T15:30:25.364Z,-3.40
2022-12-18T15:33:25.892Z,-3.40
2022-12-18T15:36:05.636Z,-3.40
2022-12-18T15:38:33.278Z,-3.40
2022-12-18T15:41:00.601Z,-3.40
2022-12-18T15:43:37.835Z,-3.50
2022-12-18T15:46:17.657Z,-3.50
2022-12-18T15:48:59.636Z,-3.40
2022-12-18T15:51:38.036Z,-3.40
2022-12-18T15:54:12.325Z,-3.40
2022-12-18T15:56:57.615Z,-3.40
2022-12-18T15:59:27.097Z,-3.40
2022-12-18T16:01:54.499Z,-3.40
2022-12-18T16:04:24.601Z,-3.40
2022-12-18T16:07:14.827Z,-3.40
2022-12-18T16:09:39.937Z,-3.40
2022-12-18T16:12:17.566Z,-3.40
2022-12-18T16:14:44.837Z,-3.40
2022-12-18T16:17:15.248Z,-3.40
2022-12-18T16:19:42.936Z,-3.40
2022-12-18T16:22:29.064Z,-3.40
2022-12-18T16:24:57.473Z,-3.30
2022-12-18T16:27:25.950Z,-3.30
2022-12-18T16:29:52.995Z,-3.30
2022-12-18T16:32:23.441Z,-3.30
2022-12-18T16:34:50.735Z,-3.20
2022-12-18T16:37:18.082Z,-3.20
2022-12-18T16:39:45.614Z,-3.20
2022-12-18T16:42:20.134Z,-3.20
2022-12-18T16:44:50.225Z,-3.20
2022-12-18T16:47:18.204Z,-3.20
2022-12-18T16:49:46.074Z,-3.20
2022-12-18T16:52:13.954Z,-3.20
2022-12-18T16:54:41.045Z,-3.20
2022-12-18T16:57:10.474Z,-3.20
2022-12-18T16:59:40.574Z,-3.10
2022-12-18T17:02:23.440Z,-3.10
2022-12-18T17:04:55.039Z,-3.10
2022-12-18T17:07:22.204Z,-3.10
2022-12-18T17:09:50.528Z,-3.20
2022-12-18T17:12:18.274Z,-3.20
2022-12-18T17:14:45.431Z,-3.20
2022-12-18T17:17:21.454Z,-3.20
2022-12-18T17:19:50.473Z,-3.30
2022-12-18T17:22:17.508Z,-3.30
2022-12-18T17:24:44.614Z,-3.30
2022-12-18T17:27:11.787Z,-3.20
2022-12-18T17:29:43.902Z,-3.20
2022-12-18T17:32:13.856Z,-3.20
2022-12-18T17:34:41.134Z,-3.20
2022-12-18T17:37:09.107Z,-3.10
2022-12-18T17:39:36.406Z,-3.10
2022-12-18T17:42:03.940Z,-3.10
2022-12-18T17:44:33.938Z,-3.10
2022-12-18T17:47:01.300Z,-3.10
2022-12-18T17:49:31.101Z,-3.00
2022-12-18T17:51:59.248Z,-3.00
2022-12-18T17:54:26.319Z,-3.00
2022-12-18T17:56:53.297Z,-2.90
2022-12-18T17:59:20.329Z,-2.90
2022-12-18T18:01:47.854Z,-2.90
2022-12-18T18:04:15.960Z,-2.90
2022-12-18T18:06:43.062Z,-2.90
2022-12-18T18:09:16.427Z,-2.90
2022-12-18T18:12:07.751Z,-2.80
2022-12-18T18:14:35.045Z,-2.90
2022-12-18T18:17:04.647Z,-2.90
2022-12-18T18:19:33.625Z,-2.90
2022-12-18T18:22:01.746Z,-2.90
2022-12-18T18:24:30.123Z,-2.90
2022-12-18T18:26:59.639Z,-2.90
2022-12-18T18:29:30.612Z,-2.80
2022-12-18T18:31:58.435Z,-2.80
2022-12-18T18:34:29.558Z,-2.80
2022-12-18T18:36:56.731Z,-2.80
2022-12-18T18:39:23.810Z,-2.70
2022-12-18T18:41:51.722Z,-2.70
2022-12-18T18:44:26.112Z,-2.70
2022-12-18T18:46:58.401Z,-2.70
2022-12-18T18:49:27.871Z,-2.60
2022-12-18T18:51:56.988Z,-2.60
2022-12-18T18:54:25.143Z,-2.70
2022-12-18T18:59:39.881Z,-2.70
2022-12-18T19:02:11.665Z,-2.60
2022-12-18T19:04:45.661Z,-2.60
2022-12-18T19:07:20.371Z,-2.60
2022-12-18T19:10:04.882Z,-2.60
2022-12-18T19:12:52.511Z,-2.60
2022-12-18T19:15:19.673Z,-2.60
2022-12-18T19:17:47.503Z,-2.60
2022-12-18T19:20:15.759Z,-2.70
2022-12-18T19:22:42.899Z,-2.60
2022-12-18T19:25:10.797Z,-2.60
2022-12-18T19:27:40.223Z,-2.60
2022-12-18T19:30:08.411Z,-2.70
2022-12-18T19:32:35.772Z,-2.60
2022-12-18T19:35:02.970Z,-2.60
2022-12-18T19:37:32.382Z,-2.60
2022-12-18T19:39:59.412Z,-2.50
2022-12-18T19:42:35.280Z,-2.50
2022-12-18T19:45:04.926Z,-2.50
2022-12-18T19:47:32.244Z,-2.50
2022-12-18T19:49:59.712Z,-2.40
2022-12-18T19:52:27.314Z,-2.40
2022-12-18T19:54:54.529Z,-2.40
2022-12-18T19:57:21.663Z,-2.40
2022-12-18T19:59:48.650Z,-2.30
2022-12-18T20:02:19.160Z,-2.30
2022-12-18T20:04:49.026Z,-2.30
2022-12-18T20:07:16.090Z,-2.30
2022-12-18T20:09:43.329Z,-2.40
2022-12-18T20:12:11.535Z,-2.50
2022-12-18T20:14:38.722Z,-2.50
2022-12-18T20:17:07.152Z,-2.50
2022-12-18T20:19:34.293Z,-2.50
2022-12-18T20:22:01.963Z,-2.60
2022-12-18T20:24:29.236Z,-2.60
2022-12-18T20:26:56.631Z,-2.60
2022-12-18T20:29:23.666Z,-2.50
2022-12-18T20:31:50.976Z,-2.60
2022-12-18T20:34:18.498Z,-2.60
2022-12-18T20:36:46.633Z,-2.70
2022-12-18T20:39:14.899Z,-2.70
2022-12-18T20:41:42.858Z,-2.80
2022-12-18T20:44:23.056Z,-2.80
2022-12-18T20:46:57.504Z,-2.90
2022-12-18T20:49:27.170Z,-2.90
2022-12-18T20:51:57.330Z,-2.90
2022-12-18T20:54:27.163Z,-3.00
2022-12-18T20:56:54.638Z,-3.00
2022-12-18T20:59:25.222Z,-2.90
2022-12-18T21:01:52.847Z,-3.00
2022-12-18T21:04:20.598Z,-3.00
2022-12-18T21:06:57.990Z,-3.00
2022-12-18T21:09:37.621Z,-2.90
2022-12-18T21:12:30.163Z,-2.90
2022-12-18T21:15:02.846Z,-2.90
2022-12-18T21:17:29.975Z,-2.80
2022-12-18T21:20:00.551Z,-2.90
2022-12-18T21:22:28.431Z,-2.80
2022-12-18T21:24:55.473Z,-2.80
2022-12-18T21:27:22.582Z,-2.80
2022-12-18T21:29:49.729Z,-2.80
2022-12-18T21:32:18.838Z,-2.80
2022-12-18T21:34:48.387Z,-2.80
2022-12-18T21:37:15.934Z,-2.80
2022-12-18T21:39:42.970Z,-2.70
2022-12-18T21:42:31.047Z,-2.70
2022-12-18T21:44:58.242Z,-2.60
2022-12-18T21:47:25.249Z,-2.60
2022-12-18T21:49:53.532Z,-2.50
2022-12-18T21:52:31.739Z,-2.50
2022-12-18T21:55:09.175Z,-2.40
2022-12-18T21:57:40.071Z,-2.30
2022-12-18T22:00:18.424Z,-2.30
2022-12-18T22:02:46.062Z,-2.30
2022-12-18T22:05:13.401Z,-2.30
2022-12-18T22:07:40.525Z,-2.30
2022-12-18T22:10:08.306Z,-2.30
2022-12-18T22:12:35.833Z,-2.30
2022-12-18T22:15:21.053Z,-2.30
2022-12-18T22:17:50.825Z,-2.50
2022-12-18T22:20:20.216Z,-2.60
2022-12-18T22:22:48.714Z,-2.70
2022-12-18T22:25:17.701Z,-2.70
2022-12-18T22:28:05.099Z,-2.80
2022-12-18T22:30:32.180Z,-2.80
2022-12-18T22:32:59.221Z,-2.80
2022-12-18T22:35:26.727Z,-2.70
2022-12-18T22:37:53.806Z,-2.70
2022-12-18T22:40:25.420Z,-2.70
2022-12-18T22:42:56.262Z,-2.60
2022-12-18T22:45:24.736Z,-2.60
2022-12-18T22:47:53.109Z,-2.50
2022-12-18T22:50:20.286Z,-2.40
2022-12-18T22:52:47.305Z,-2.40
2022-12-18T22:55:14.647Z,-2.40
2022-12-18T22:57:48.488Z,-2.40
2022-12-18T23:00:21.975Z,-2.40
2022-12-18T23:02:59.726Z,-2.30
2022-12-18T23:05:29.394Z,-2.30
2022-12-18T23:07:56.691Z,-2.30
2022-12-18T23:10:24.095Z,-2.30
2022-12-18T23:12:51.148Z,-2.30
2022-12-18T23:15:18.892Z,-2.20
2022-12-18T23:17:49.877Z,-2.20
2022-12-18T23:20:16.953Z,-2.30
2022-12-18T23:22:43.983Z,-2.30
2022-12-18T23:25:11.107Z,-2.30
2022-12-18T23:27:38.113Z,-2.30
2022-12-18T23:30:06.157Z,-2.30
2022-12-18T23:32:36.434Z,-2.30
2022-12-18T23:35:04.656Z,-2.30
2022-12-18T23:37:57.373Z,-2.30
2022-12-18T23:40:19.777Z,-2.30
2022-12-18T23:42:47.397Z,-2.40
2022-12-18T23:45:17.395Z,-2.50
2022-12-18T23:47:44.902Z,-2.50
2022-12-18T23:50:14.434Z,-2.50
2022-12-18T23:52:41.743Z,-2.50
2022-12-18T23:55:09.139Z,-2.40
2022-12-18T23:57:36.209Z,-2.30
